createdAt,value
2019-04-16T00:01:45.366Z,100841.78
2019-04-16T00:05:12.035Z,100842.86
2019-04-16T00:08:19.523Z,100848.10
2019-04-16T00:11:01.274Z,100841.59
2019-04-16T00:13:55.805Z,100841.09
2019-04-16T00:16:46.106Z,100841.59
2019-04-16T00:19:36.559Z,100845.02
2019-04-16T00:22:39.031Z,100845.64
2019-04-16T00:25:31.870Z,100850.52
2019-04-16T00:28:21.882Z,100852.66
2019-04-16T00:31:12.074Z,100844.58
2019-04-16T00:34:02.239Z,100851.92
2019-04-16T00:36:52.697Z,100850.58
2019-04-16T00:39:42.955Z,100850.80
2019-04-16T00:42:33.029Z,100845.92
2019-04-16T00:45:23.314Z,100853.19
2019-04-16T00:48:13.892Z,100851.81
2019-04-16T00:51:05.350Z,100849.08
2019-04-16T00:53:55.705Z,100857.20
2019-04-16T00:56:46.634Z,100860.72
2019-04-16T00:59:37.546Z,100862.45
2019-04-16T01:02:27.884Z,100872.18
2019-04-16T01:05:18.295Z,100866.83
2019-04-16T01:08:11.063Z,100873.30
2019-04-16T01:11:01.217Z,100871.31
2019-04-16T01:13:53.254Z,100863.97
2019-04-16T01:16:43.154Z,100865.85
2019-04-16T01:19:33.258Z,100859.09
2019-04-16T01:22:24.569Z,100862.02
2019-04-16T01:25:14.808Z,100860.72
2019-04-16T01:28:07.415Z,100861.39
2019-04-16T01:31:15.263Z,100863.96
2019-04-16T01:34:20.963Z,100864.65
2019-04-16T01:37:35.867Z,100862.08
2019-04-16T01:40:35.142Z,100868.21
2019-04-16T01:43:25.858Z,100869.19
2019-04-16T01:46:17.015Z,100864.63
2019-04-16T01:49:10.050Z,100860.98
2019-04-16T01:51:59.270Z,100854.11
2019-04-16T01:54:51.483Z,100869.08
2019-04-16T01:57:42.077Z,100872.77
2019-04-16T02:00:32.276Z,100868.55
2019-04-16T02:03:22.558Z,100870.17
2019-04-16T02:06:12.795Z,100874.19
2019-04-16T02:09:03.690Z,100876.17
2019-04-16T02:11:55.211Z,100874.30
2019-04-16T02:14:47.311Z,100869.62
2019-04-16T02:17:37.366Z,100867.45
2019-04-16T02:20:27.454Z,100860.01
2019-04-16T02:23:17.544Z,100865.96
2019-04-16T02:26:07.853Z,100862.23
2019-04-16T02:28:58.935Z,100864.90
2019-04-16T02:31:51.578Z,100867.10
2019-04-16T02:34:42.952Z,100868.73
2019-04-16T02:37:36.307Z,100867.67
2019-04-16T02:40:25.012Z,100866.84
2019-04-16T02:43:15.112Z,100875.03
2019-04-16T02:46:05.332Z,100871.42
2019-04-16T02:48:55.701Z,100865.78
2019-04-16T02:52:06.131Z,100872.98
2019-04-16T02:55:21.020Z,100863.34
2019-04-16T02:58:13.975Z,100862.58
2019-04-16T03:01:15.231Z,100866.50
2019-04-16T03:04:12.303Z,100861.36
2019-04-16T03:07:04.168Z,100859.36
2019-04-16T03:10:01.153Z,100852.89
2019-04-16T03:12:46.479Z,100834.98
2019-04-16T03:16:02.800Z,100848.98
2019-04-16T03:18:58.433Z,100853.97
2019-04-16T03:21:48.846Z,100848.53
2019-04-16T03:24:40.257Z,100851.67
2019-04-16T03:27:32.181Z,100854.45
2019-04-16T03:30:22.483Z,100872.00
2019-04-16T03:33:14.917Z,100865.13
2019-04-16T03:36:04.652Z,100860.55
2019-04-16T03:38:54.956Z,100867.80
2019-04-16T03:41:45.279Z,100874.11
2019-04-16T03:44:37.229Z,100880.85
2019-04-16T03:47:27.361Z,100883.05
2019-04-16T03:50:17.543Z,100878.38
2019-04-16T03:53:08.818Z,100882.59
2019-04-16T03:55:59.254Z,100895.07
2019-04-16T03:58:49.775Z,100895.47
2019-04-16T04:01:40.149Z,100896.98
2019-04-16T04:04:30.455Z,100904.63
2019-04-16T04:07:20.738Z,100902.52
2019-04-16T04:10:10.799Z,100907.85
2019-04-16T04:13:01.041Z,100916.06
2019-04-16T04:15:55.142Z,100920.33
2019-04-16T04:18:45.661Z,100902.30
2019-04-16T04:21:36.055Z,100904.08
2019-04-16T04:24:28.502Z,100935.14
2019-04-16T04:27:19.357Z,100938.44
2019-04-16T04:30:09.972Z,100942.16
2019-04-16T04:33:00.790Z,100943.69
2019-04-16T04:35:52.016Z,100955.80
2019-04-16T04:38:42.375Z,100952.31
2019-04-16T04:41:32.815Z,100956.80
2019-04-16T04:44:25.928Z,100955.43
2019-04-16T04:47:19.404Z,100967.46
2019-04-16T04:50:08.386Z,100963.59
2019-04-16T04:52:58.576Z,100966.50
2019-04-16T04:55:48.829Z,100963.64
2019-04-16T04:58:41.597Z,100963.03
2019-04-16T05:01:31.564Z,100963.36
2019-04-16T05:04:33.355Z,100965.42
2019-04-16T05:07:25.751Z,100960.98
2019-04-16T05:10:15.431Z,100967.66
2019-04-16T05:13:05.601Z,100973.56
2019-04-16T05:15:58.349Z,100970.08
2019-04-16T05:18:48.036Z,100977.09
2019-04-16T05:21:38.558Z,100984.67
2019-04-16T05:24:29.976Z,100981.05
2019-04-16T05:27:20.340Z,100980.55
2019-04-16T05:30:10.730Z,100982.98
2019-04-16T05:33:05.084Z,100986.67
2019-04-16T05:35:52.710Z,100989.01
2019-04-16T05:38:42.981Z,100992.96
2019-04-16T05:41:33.341Z,101000.49
2019-04-16T05:44:30.470Z,101000.42
2019-04-16T05:47:25.324Z,101009.52
2019-04-16T05:50:17.047Z,101012.26
2019-04-16T05:53:08.235Z,101016.78
2019-04-16T05:56:23.708Z,101015.98
2019-04-16T05:59:14.650Z,101024.33
2019-04-16T06:02:18.731Z,101021.05
2019-04-16T06:05:12.468Z,101026.14
2019-04-16T06:08:12.400Z,101030.13
2019-04-16T06:11:08.197Z,101035.95
2019-04-16T06:14:08.945Z,101036.97
2019-04-16T06:17:18.195Z,101032.38
2019-04-16T06:20:20.756Z,101034.13
2019-04-16T06:23:24.880Z,101041.33
2019-04-16T06:26:32.670Z,101042.61
2019-04-16T06:29:47.057Z,101043.36
2019-04-16T06:32:54.296Z,101050.48
2019-04-16T06:36:12.448Z,101052.40
2019-04-16T06:39:39.815Z,101059.67
2019-04-16T06:42:45.005Z,101065.39
2019-04-16T06:45:46.986Z,101067.22
2019-04-16T06:48:45.944Z,101072.80
2019-04-16T06:51:53.147Z,101072.31
2019-04-16T06:55:03.744Z,101074.57
2019-04-16T06:58:06.727Z,101077.04
2019-04-16T07:01:15.772Z,101081.47
2019-04-16T07:04:23.815Z,101077.76
2019-04-16T07:07:39.866Z,101085.70
2019-04-16T07:10:28.906Z,101079.59
2019-04-16T07:13:19.237Z,101082.24
2019-04-16T07:16:09.165Z,101084.13
2019-04-16T07:18:59.984Z,101080.48
2019-04-16T07:21:50.085Z,101074.24
2019-04-16T07:24:40.525Z,101074.27
2019-04-16T07:27:39.916Z,101085.95
2019-04-16T07:30:51.736Z,101082.06
2019-04-16T07:34:12.971Z,101081.19
2019-04-16T07:37:25.222Z,101079.72
2019-04-16T07:40:40.815Z,101081.76
2019-04-16T07:43:50.354Z,101081.76
2019-04-16T07:47:05.630Z,101081.20
2019-04-16T07:50:03.992Z,101080.02
2019-04-16T07:53:13.298Z,101081.58
2019-04-16T07:56:04.919Z,101078.98
2019-04-16T07:59:00.257Z,101078.98
2019-04-16T08:01:48.833Z,101078.03
2019-04-16T08:04:39.213Z,101075.38
2019-04-16T08:07:29.640Z,101069.69
2019-04-16T08:10:19.684Z,101069.19
2019-04-16T08:13:21.081Z,101073.40
2019-04-16T08:16:11.449Z,101060.89
2019-04-16T08:19:02.573Z,101057.52
2019-04-16T08:21:52.903Z,101066.03
2019-04-16T08:24:46.985Z,101067.26
2019-04-16T08:27:37.433Z,101067.47
2019-04-16T08:30:28.184Z,101061.06
2019-04-16T08:33:18.403Z,101059.39
2019-04-16T08:36:09.446Z,101059.39
2019-04-16T08:38:59.774Z,101057.08
2019-04-16T08:41:52.459Z,101057.09
2019-04-16T08:44:42.000Z,101065.33
2019-04-16T08:47:32.336Z,101060.83
2019-04-16T08:50:25.906Z,101062.73
2019-04-16T08:53:14.401Z,101049.02
2019-04-16T08:56:04.768Z,101062.16
2019-04-16T08:59:00.026Z,101058.05
2019-04-16T09:01:46.855Z,101055.48
2019-04-16T09:04:37.126Z,101060.20
2019-04-16T09:07:39.959Z,101050.70
2019-04-16T09:10:31.103Z,101049.30
2019-04-16T09:13:24.579Z,101039.55
2019-04-16T09:16:14.837Z,101059.20
2019-04-16T09:19:07.229Z,101054.98
2019-04-16T09:21:57.182Z,101054.48
2019-04-16T09:24:54.975Z,101052.23
2019-04-16T09:27:47.951Z,101059.44
2019-04-16T09:30:55.880Z,101050.70
2019-04-16T09:33:57.490Z,101051.16
2019-04-16T09:36:57.549Z,101047.27
2019-04-16T09:40:16.498Z,101036.06
2019-04-16T09:42:57.982Z,101040.01
2019-04-16T09:45:48.424Z,101033.20
2019-04-16T09:48:38.606Z,101031.09
2019-04-16T09:51:29.110Z,101017.61
2019-04-16T09:54:19.361Z,101017.61
2019-04-16T09:57:09.578Z,101028.03
2019-04-16T10:00:01.566Z,101027.14
2019-04-16T10:02:55.266Z,101027.32
2019-04-16T10:05:45.494Z,101023.55
2019-04-16T10:08:36.031Z,101021.19
2019-04-16T10:11:26.335Z,101023.60
2019-04-16T10:14:18.589Z,101023.60
2019-04-16T10:17:08.825Z,101031.11
2019-04-16T10:19:59.143Z,101033.28
2019-04-16T10:22:49.412Z,101023.95
2019-04-16T10:25:39.709Z,101020.05
2019-04-16T10:28:33.887Z,101016.69
2019-04-16T10:31:25.806Z,101021.88
2019-04-16T10:34:16.113Z,101018.84
2019-04-16T10:37:06.332Z,101019.30
2019-04-16T10:40:08.081Z,101019.95
2019-04-16T10:43:18.820Z,101014.10
2019-04-16T10:46:25.727Z,101017.17
2019-04-16T10:49:33.548Z,101022.58
2019-04-16T10:52:41.443Z,101022.58
2019-04-16T10:56:05.890Z,101021.97
2019-04-16T10:59:23.976Z,101019.05
2019-04-16T11:02:38.815Z,101014.48
2019-04-16T11:05:47.702Z,101007.44
2019-04-16T11:08:37.982Z,101012.00
2019-04-16T11:11:28.406Z,101009.82
2019-04-16T11:14:18.734Z,101004.04
2019-04-16T11:17:08.787Z,101008.22
2019-04-16T11:20:00.161Z,101004.23
2019-04-16T11:22:51.453Z,101000.30
2019-04-16T11:25:42.228Z,100991.69
2019-04-16T11:28:32.678Z,100987.72
2019-04-16T11:31:23.728Z,100988.89
2019-04-16T11:34:13.723Z,100988.89
2019-04-16T11:37:08.252Z,100985.34
2019-04-16T11:39:55.460Z,100974.83
2019-04-16T11:42:45.732Z,100975.34
2019-04-16T11:45:35.983Z,100977.35
2019-04-16T11:48:26.284Z,100968.52
2019-04-16T11:51:18.358Z,100967.05
2019-04-16T11:54:11.404Z,100958.38
2019-04-16T11:57:00.377Z,100956.36
2019-04-16T12:00:05.757Z,100944.90
2019-04-16T12:03:04.314Z,100941.52
2019-04-16T12:06:27.830Z,100944.52
2019-04-16T12:09:30.749Z,100943.58
2019-04-16T12:12:24.540Z,100937.26
2019-04-16T12:15:51.998Z,100939.56
2019-04-16T12:18:55.729Z,100934.83
2019-04-16T12:22:20.001Z,100931.41
2019-04-16T12:25:29.248Z,100927.38
2019-04-16T12:28:27.233Z,100923.95
2019-04-16T12:31:38.487Z,100920.70
2019-04-16T12:34:58.035Z,100916.03
2019-04-16T12:38:06.043Z,100920.62
2019-04-16T12:41:33.743Z,100910.05
2019-04-16T12:44:44.713Z,100894.58
2019-04-16T12:47:32.523Z,100887.63
2019-04-16T12:50:50.787Z,100889.05
2019-04-16T12:54:03.280Z,100899.86
2019-04-16T12:57:21.781Z,100884.43
2019-04-16T13:00:43.348Z,100886.35
2019-04-16T13:03:52.706Z,100877.78
2019-04-16T13:06:53.421Z,100871.17
2019-04-16T13:10:05.617Z,100871.05
2019-04-16T13:13:13.175Z,100874.68
2019-04-16T13:16:11.465Z,100869.48
2019-04-16T13:19:19.600Z,100868.97
2019-04-16T13:22:11.910Z,100870.57
2019-04-16T13:25:28.320Z,100857.98
2019-04-16T13:28:20.439Z,100857.64
2019-04-16T13:31:11.001Z,100851.41
2019-04-16T13:34:01.455Z,100857.55
2019-04-16T13:36:52.227Z,100851.20
2019-04-16T13:39:50.884Z,100858.49
2019-04-16T13:42:41.057Z,100856.52
2019-04-16T13:45:33.919Z,100846.95
2019-04-16T13:48:52.134Z,100857.18
2019-04-16T13:51:44.974Z,100851.30
2019-04-16T13:54:46.738Z,100853.38
2019-04-16T13:57:38.092Z,100856.95
2019-04-16T14:00:36.340Z,100856.30
2019-04-16T14:03:25.421Z,100863.30
2019-04-16T14:06:15.595Z,100855.36
2019-04-16T14:09:08.884Z,100853.97
2019-04-16T14:12:01.061Z,100840.95
2019-04-16T14:14:51.115Z,100840.20
2019-04-16T14:17:52.413Z,100830.37
2019-04-16T14:20:32.727Z,100836.16
2019-04-16T14:23:22.932Z,100830.77
2019-04-16T14:26:13.004Z,100831.09
2019-04-16T14:29:06.754Z,100830.04
2019-04-16T14:31:55.087Z,100827.12
2019-04-16T14:34:55.198Z,100827.23
2019-04-16T14:37:45.748Z,100826.19
2019-04-16T14:40:35.844Z,100818.03
2019-04-16T14:43:32.091Z,100811.31
2019-04-16T14:46:22.264Z,100808.37
2019-04-16T14:49:15.260Z,100806.13
2019-04-16T14:52:04.468Z,100799.82
2019-04-16T14:55:03.628Z,100798.19
2019-04-16T14:58:19.703Z,100793.17
2019-04-16T15:01:28.309Z,100790.63
2019-04-16T15:04:43.878Z,100788.98
2019-04-16T15:07:44.906Z,100795.44
2019-04-16T15:11:06.524Z,100795.64
2019-04-16T15:14:23.446Z,100801.62
2019-04-16T15:17:37.761Z,100807.60
2019-04-16T15:20:47.202Z,100817.39
2019-04-16T15:24:16.803Z,100813.44
2019-04-16T15:27:37.741Z,100817.61
2019-04-16T15:30:53.522Z,100809.23
2019-04-16T15:33:53.490Z,100831.96
2019-04-16T15:37:00.501Z,100837.47
2019-04-16T15:40:01.353Z,100829.83
2019-04-16T15:43:13.706Z,100827.13
2019-04-16T15:46:25.231Z,100832.98
2019-04-16T15:49:24.145Z,100832.50
2019-04-16T15:52:39.553Z,100841.16
2019-04-16T15:55:37.540Z,100828.97
2019-04-16T15:58:32.784Z,100824.19
2019-04-16T16:01:47.343Z,100822.61
2019-04-16T16:04:55.447Z,100821.52
2019-04-16T16:08:01.803Z,100834.69
2019-04-16T16:10:57.049Z,100836.41
2019-04-16T16:13:47.118Z,100831.77
2019-04-16T16:16:41.928Z,100834.08
2019-04-16T16:19:28.964Z,100837.48
2019-04-16T16:22:19.213Z,100834.30
2019-04-16T16:25:09.421Z,100822.45
2019-04-16T16:27:59.812Z,100824.42
2019-04-16T16:30:49.889Z,100824.36
2019-04-16T16:33:40.120Z,100819.83
2019-04-16T16:36:30.097Z,100832.83
2019-04-16T16:39:24.561Z,100831.96
2019-04-16T16:42:18.179Z,100837.56
2019-04-16T16:45:09.253Z,100830.45
2019-04-16T16:47:59.289Z,100828.09
2019-04-16T16:50:51.617Z,100820.94
2019-04-16T16:53:48.725Z,100821.98
2019-04-16T16:56:44.351Z,100820.22
2019-04-16T16:59:40.219Z,100813.20
2019-04-16T17:02:41.224Z,100813.40
2019-04-16T17:05:34.321Z,100824.20
2019-04-16T17:08:27.041Z,100824.52
2019-04-16T17:11:17.231Z,100821.95
2019-04-16T17:14:07.422Z,100822.48
2019-04-16T17:17:11.809Z,100823.33
2019-04-16T17:19:50.875Z,100821.52
2019-04-16T17:22:41.769Z,100827.19
2019-04-16T17:25:36.592Z,100828.45
2019-04-16T17:28:24.500Z,100831.61
2019-04-16T17:31:15.228Z,100836.20
2019-04-16T17:34:05.512Z,100839.41
2019-04-16T17:36:56.313Z,100839.86
2019-04-16T17:39:50.591Z,100844.58
2019-04-16T17:42:43.619Z,100849.34
2019-04-16T17:46:01.704Z,100850.63
2019-04-16T17:49:02.463Z,100853.42
2019-04-16T17:52:05.489Z,100856.96
2019-04-16T17:55:14.649Z,100851.80
2019-04-16T17:58:27.374Z,100854.64
2019-04-16T18:01:44.482Z,100858.88
2019-04-16T18:05:00.791Z,100863.02
2019-04-16T18:08:19.996Z,100869.70
2019-04-16T18:11:13.564Z,100863.03
2019-04-16T18:14:11.373Z,100874.36
2019-04-16T18:17:10.634Z,100881.46
2019-04-16T18:20:29.025Z,100879.77
2019-04-16T18:23:29.213Z,100877.03
2019-04-16T18:26:35.738Z,100883.11
2019-04-16T18:29:32.891Z,100894.04
2019-04-16T18:32:39.480Z,100883.22
2019-04-16T18:35:37.546Z,100885.73
2019-04-16T18:38:45.690Z,100889.81
2019-04-16T18:41:43.270Z,100891.68
2019-04-16T18:45:05.040Z,100890.39
2019-04-16T18:48:13.959Z,100886.62
2019-04-16T18:51:03.292Z,100886.55
2019-04-16T18:53:53.645Z,100884.70
2019-04-16T18:56:45.272Z,100893.71
2019-04-16T18:59:35.680Z,100887.99
2019-04-16T19:02:28.931Z,100875.13
2019-04-16T19:05:19.341Z,100885.31
2019-04-16T19:08:10.120Z,100883.22
2019-04-16T19:11:00.617Z,100885.91
2019-04-16T19:13:51.108Z,100886.42
2019-04-16T19:16:41.084Z,100884.50
2019-04-16T19:19:32.452Z,100887.81
2019-04-16T19:22:22.596Z,100883.33
2019-04-16T19:25:12.737Z,100884.32
2019-04-16T19:28:06.005Z,100887.64
2019-04-16T19:30:55.393Z,100882.44
2019-04-16T19:33:45.724Z,100880.14
2019-04-16T19:36:35.990Z,100878.72
2019-04-16T19:39:28.579Z,100881.39
2019-04-16T19:42:18.943Z,100876.94
2019-04-16T19:45:12.168Z,100864.87
2019-04-16T19:48:02.155Z,100892.02
2019-04-16T19:50:52.632Z,100884.37
2019-04-16T19:53:44.651Z,100897.17
2019-04-16T19:56:34.840Z,100893.28
2019-04-16T19:59:25.154Z,100887.16
2019-04-16T20:02:15.481Z,100882.61
2019-04-16T20:05:06.773Z,100883.48
2019-04-16T20:07:57.112Z,100880.73
2019-04-16T20:10:48.775Z,100883.57
2019-04-16T20:13:39.035Z,100877.27
2019-04-16T20:16:29.760Z,100873.84
2019-04-16T20:19:19.702Z,100871.94
2019-04-16T20:22:09.747Z,100877.11
2019-04-16T20:25:00.138Z,100877.73
2019-04-16T20:27:50.436Z,100878.09
2019-04-16T20:30:40.821Z,100881.13
2019-04-16T20:33:31.194Z,100881.88
2019-04-16T20:36:22.728Z,100886.83
2019-04-16T20:39:14.517Z,100882.23
2019-04-16T20:42:04.722Z,100885.39
2019-04-16T20:44:55.000Z,100880.18
2019-04-16T20:47:45.343Z,100871.70
2019-04-16T20:50:35.457Z,100873.12
2019-04-16T20:53:25.394Z,100878.44
2019-04-16T20:56:19.954Z,100877.50
2019-04-16T20:59:07.305Z,100876.50
2019-04-16T21:01:57.465Z,100873.70
2019-04-16T21:04:47.739Z,100876.09
2019-04-16T21:07:37.726Z,100876.97
2019-04-16T21:10:28.048Z,100880.28
2019-04-16T21:13:19.485Z,100873.81
2019-04-16T21:16:09.737Z,100873.99
2019-04-16T21:18:59.745Z,100867.31
2019-04-16T21:21:55.096Z,100870.73
2019-04-16T21:24:41.538Z,100879.53
2019-04-16T21:27:33.637Z,100876.62
2019-04-16T21:30:24.075Z,100880.05
2019-04-16T21:33:20.401Z,100884.53
2019-04-16T21:36:12.588Z,100885.13
2019-04-16T21:39:33.820Z,100880.23
2019-04-16T21:42:23.875Z,100873.12
2019-04-16T21:45:16.517Z,100869.58
2019-04-16T21:48:06.152Z,100871.70
2019-04-16T21:50:56.353Z,100875.55
2019-04-16T21:53:46.826Z,100869.25
2019-04-16T21:56:39.758Z,100867.11
2019-04-16T21:59:28.969Z,100866.08
2019-04-16T22:02:25.305Z,100861.58
2019-04-16T22:05:17.714Z,100863.79
2019-04-16T22:08:07.868Z,100858.66
2019-04-16T22:10:59.217Z,100858.72
2019-04-16T22:13:50.637Z,100856.15
2019-04-16T22:16:42.857Z,100849.29
2019-04-16T22:19:33.291Z,100849.77
2019-04-16T22:22:27.340Z,100851.74
2019-04-16T22:25:15.255Z,100851.74
2019-04-16T22:28:05.545Z,100849.93
2019-04-16T22:30:56.745Z,100850.80
2019-04-16T22:33:46.756Z,100851.10
2019-04-16T22:36:36.994Z,100849.73
2019-04-16T22:39:38.542Z,100855.45
2019-04-16T22:42:47.749Z,100848.98
2019-04-16T22:45:42.245Z,100848.40
2019-04-16T22:48:32.173Z,100849.34
2019-04-16T22:51:23.002Z,100845.39
2019-04-16T22:54:13.199Z,100842.66
2019-04-16T22:57:08.924Z,100836.55
2019-04-16T22:59:58.878Z,100831.86
2019-04-16T23:02:50.369Z,100826.65
2019-04-16T23:05:40.553Z,100837.10
2019-04-16T23:08:31.161Z,100825.17
2019-04-16T23:11:23.751Z,100828.16
2019-04-16T23:14:13.837Z,100822.05
2019-04-16T23:17:05.467Z,100819.78
2019-04-16T23:19:55.932Z,100823.16
2019-04-16T23:22:46.679Z,100822.58
2019-04-16T23:25:37.785Z,100822.91
2019-04-16T23:28:28.018Z,100822.22
2019-04-16T23:31:19.564Z,100817.22
2019-04-16T23:34:09.931Z,100817.67
2019-04-16T23:37:00.230Z,100817.02
2019-04-16T23:39:50.271Z,100819.70
2019-04-16T23:42:47.505Z,100819.34
2019-04-16T23:45:56.102Z,100820.92
2019-04-16T23:49:08.081Z,100823.89
2019-04-16T23:52:06.385Z,100824.88
2019-04-16T23:55:17.517Z,100809.58
2019-04-16T23:58:18.191Z,100812.35
